Time;durP1;ratioP1;P1;durP2;ratioP2;P2;SDS_P1;SDS_P2;PMS_P1;PMS_P2;Temp;Humidity;BMP_temperature;BMP_pressure;BME280_temperature;BME280_humidity;BME280_pressure;Samples;Min_cycle;Max_cycle;Signal;HPM_P1;HPM_P2
2022/11/28 00:01:46;;;;;;;1.90;1.87;;;4.10;97.30;;;;;;5080076;28;20455;-82
2022/11/28 00:04:12;;;;;;;7.40;2.90;;;4.10;97.30;;;;;;5080487;28;20298;-82
2022/11/28 00:06:40;;;;;;;5.73;1.83;;;4.00;97.30;;;;;;5079624;28;21137;-81
2022/11/28 00:09:06;;;;;;;2.67;2.13;;;4.10;97.30;;;;;;5079625;28;20168;-82
2022/11/28 00:11:32;;;;;;;2.70;2.50;;;4.10;97.30;;;;;;5078184;28;20942;-82
2022/11/28 00:13:58;;;;;;;3.50;2.60;;;4.10;97.30;;;;;;5077349;28;20434;-82
2022/11/28 00:16:24;;;;;;;4.20;2.07;;;4.10;97.30;;;;;;5077086;28;20179;-83
2022/11/28 00:18:51;;;;;;;1.50;1.40;;;4.10;97.30;;;;;;5079411;28;20175;-82
2022/11/28 00:21:17;;;;;;;1.97;1.87;;;4.10;97.30;;;;;;5077359;28;20417;-82
2022/11/28 00:23:44;;;;;;;2.83;2.53;;;4.10;97.30;;;;;;5077021;28;20445;-83
2022/11/28 00:26:15;;;;;;;2.30;2.20;;;4.10;97.30;;;;;;5078963;28;21010;-83
2022/11/28 00:28:40;;;;;;;3.83;2.33;;;4.00;97.30;;;;;;5077712;28;20460;-83
2022/11/28 00:31:15;;;;;;;3.33;1.60;;;4.00;97.30;;;;;;5078394;28;20460;-82
2022/11/28 00:33:41;;;;;;;3.20;2.10;;;3.90;97.30;;;;;;5078071;28;20190;-82
2022/11/28 00:36:07;;;;;;;2.40;2.20;;;3.90;97.30;;;;;;5066637;28;20429;-82
2022/11/28 00:38:32;;;;;;;25.97;2.60;;;3.90;97.30;;;;;;5060687;28;20291;-82
2022/11/28 00:41:03;;;;;;;3.40;3.20;;;3.80;97.30;;;;;;5062043;28;20417;-82
2022/11/28 00:43:29;;;;;;;2.07;1.93;;;3.80;97.30;;;;;;5082356;28;20282;-81
2022/11/28 00:45:55;;;;;;;8.03;2.70;;;3.70;97.30;;;;;;5063845;28;20441;-82
2022/11/28 00:48:21;;;;;;;1.80;1.70;;;3.70;97.30;;;;;;5062825;28;20175;-82
2022/11/28 00:50:47;;;;;;;1.73;1.63;;;3.60;97.30;;;;;;5062355;28;20441;-82
2022/11/28 00:53:12;;;;;;;1.73;1.63;;;3.50;97.30;;;;;;5062312;28;20487;-82
2022/11/28 00:55:39;;;;;;;3.17;1.97;;;3.50;97.30;;;;;;5062819;28;20694;-82
2022/11/28 00:58:05;;;;;;;4.77;2.73;;;3.40;97.30;;;;;;5062111;28;20176;-82
2022/11/28 01:00:30;;;;;;;3.40;1.70;;;3.40;97.30;;;;;;5063246;28;20424;-82
2022/11/28 01:02:56;;;;;;;9.63;2.80;;;3.30;97.30;;;;;;5062702;28;20230;-82
2022/11/28 01:05:21;;;;;;;2.37;2.17;;;3.30;97.30;;;;;;5062702;28;20267;-82
2022/11/28 01:07:47;;;;;;;9.70;3.70;;;3.30;97.30;;;;;;5081686;28;20203;-82
2022/11/28 01:10:13;;;;;;;4.57;3.23;;;3.30;97.30;;;;;;5063269;28;20175;-82
2022/11/28 01:12:39;;;;;;;2.70;2.53;;;3.20;97.30;;;;;;5062497;28;20223;-82
2022/11/28 01:15:07;;;;;;;2.53;2.33;;;3.20;97.30;;;;;;5073845;28;20172;-82
2022/11/28 01:17:32;;;;;;;4.63;2.33;;;3.10;97.30;;;;;;5079012;28;20781;-82
2022/11/28 01:19:58;;;;;;;2.03;1.90;;;3.10;97.30;;;;;;5078307;28;20535;-82
2022/11/28 01:22:24;;;;;;;1.90;1.80;;;3.10;97.30;;;;;;5078086;28;20200;-82
2022/11/28 01:24:49;;;;;;;3.40;3.20;;;3.20;97.30;;;;;;5078134;28;20206;-82
2022/11/28 01:27:15;;;;;;;2.30;1.53;;;3.30;97.30;;;;;;5072291;28;20278;-82
2022/11/28 01:29:40;;;;;;;10.17;3.17;;;3.40;97.30;;;;;;5062145;28;20179;-81
2022/11/28 01:32:06;;;;;;;2.67;1.73;;;3.40;97.30;;;;;;5061580;28;20214;-82
2022/11/28 01:34:32;;;;;;;1.73;1.63;;;3.40;97.30;;;;;;5079749;28;20205;-82
2022/11/28 01:36:58;;;;;;;14.10;3.70;;;3.40;97.30;;;;;;5061102;28;20664;-82
2022/11/28 01:39:24;;;;;;;3.97;2.50;;;3.40;97.30;;;;;;5061743;28;20186;-82
2022/11/28 01:41:50;;;;;;;1.50;1.40;;;3.30;97.30;;;;;;5060883;28;20417;-82
2022/11/28 01:44:16;;;;;;;10.27;4.27;;;3.30;97.30;;;;;;5061553;28;20675;-82
2022/11/28 01:46:41;;;;;;;2.43;1.60;;;3.30;97.30;;;;;;5061765;28;20214;-82
2022/11/28 01:49:16;;;;;;;2.03;1.93;;;3.40;97.30;;;;;;5060917;28;20221;-82
2022/11/28 01:51:47;;;;;;;2.03;1.93;;;3.40;97.30;;;;;;5061138;28;20518;-82
2022/11/28 01:54:15;;;;;;;2.70;2.20;;;3.40;97.30;;;;;;5061584;28;20434;-82
2022/11/28 01:56:50;;;;;;;5.77;5.50;;;3.40;97.30;;;;;;5061895;28;20417;-82
2022/11/28 01:59:17;;;;;;;2.40;2.20;;;3.40;97.30;;;;;;5061543;28;20401;-82
2022/11/28 02:01:44;;;;;;;2.07;1.80;;;3.30;97.30;;;;;;5060949;28;20891;-82
2022/11/28 02:04:12;;;;;;;4.87;3.07;;;3.30;97.30;;;;;;5061183;28;20440;-81
2022/11/28 02:06:38;;;;;;;5.80;2.43;;;3.30;97.30;;;;;;5060836;28;20540;-82
2022/11/28 02:09:10;;;;;;;1.50;1.40;;;3.20;97.30;;;;;;5062283;28;20617;-82
2022/11/28 02:11:54;;;;;;;9.03;3.10;;;3.20;97.30;;;;;;5064648;28;20409;-82
2022/11/28 02:14:20;;;;;;;5.00;4.23;;;3.20;97.30;;;;;;5064693;28;20417;-82
2022/11/28 02:17:19;;;;;;;2.37;2.00;;;3.20;97.30;;;;;;5064979;28;20417;-82
2022/11/28 02:20:03;;;;;;;6.10;3.60;;;3.20;97.30;;;;;;5063926;28;20171;-82
2022/11/28 02:22:37;;;;;;;5.63;2.90;;;3.10;97.30;;;;;;5064029;28;20821;-82
2022/11/28 02:25:21;;;;;;;1.53;1.43;;;3.10;97.30;;;;;;5063851;28;20492;-82
2022/11/28 02:28:20;;;;;;;4.03;3.83;;;3.10;97.30;;;;;;5081437;28;20448;-82
2022/11/28 02:31:05;;;;;;;2.23;2.03;;;3.00;97.30;;;;;;5063753;28;20509;-83
2022/11/28 02:33:41;;;;;;;3.10;2.87;;;3.00;97.30;;;;;;5062919;28;20437;-83
2022/11/28 02:36:12;;;;;;;2.43;2.23;;;3.00;97.30;;;;;;5062315;28;20404;-82
2022/11/28 02:38:46;;;;;;;2.80;2.60;;;3.00;97.30;;;;;;5062017;28;20409;-81
2022/11/28 02:41:28;;;;;;;6.07;3.00;;;3.00;97.30;;;;;;5059751;28;20448;-82
2022/11/28 02:44:26;;;;;;;4.03;3.70;;;3.00;97.30;;;;;;5060828;28;20440;-82
2022/11/28 02:46:58;;;;;;;8.33;3.40;;;3.00;97.30;;;;;;5059634;28;20486;-81
2022/11/28 02:49:36;;;;;;;4.40;2.50;;;3.00;97.30;;;;;;5059874;28;21001;-82
2022/11/28 02:52:28;;;;;;;2.57;1.90;;;2.90;97.30;;;;;;5060014;28;20441;-83
2022/11/28 02:54:54;;;;;;;6.47;3.40;;;3.00;97.30;;;;;;5047835;28;20417;-82
2022/11/28 02:57:20;;;;;;;7.20;4.50;;;3.00;97.30;;;;;;5058906;28;20420;-82
2022/11/28 02:59:48;;;;;;;4.57;3.37;;;2.90;97.30;;;;;;5059811;28;20923;-82
2022/11/28 03:02:20;;;;;;;5.77;3.77;;;3.00;97.30;;;;;;5062405;28;20175;-82
2022/11/28 03:05:04;;;;;;;2.17;2.00;;;3.00;97.30;;;;;;5063456;28;20397;-82
2022/11/28 03:07:45;;;;;;;2.67;2.50;;;3.00;97.30;;;;;;5057446;28;20547;-82
2022/11/28 03:10:23;;;;;;;2.50;2.10;;;3.10;97.30;;;;;;5066680;28;20915;-82
2022/11/28 03:13:09;;;;;;;1.57;1.47;;;3.10;97.30;;;;;;5063889;28;20447;-82
2022/11/28 03:16:09;;;;;;;7.83;2.90;;;3.10;97.30;;;;;;5083780;28;20443;-82
2022/11/28 03:18:51;;;;;;;4.87;2.40;;;3.10;97.30;;;;;;5030422;28;20422;-82
2022/11/28 03:21:47;;;;;;;2.47;2.00;;;3.10;97.30;;;;;;5064651;28;20902;-81
2022/11/28 03:24:48;;;;;;;2.20;2.00;;;3.10;97.30;;;;;;5063787;28;20434;-81
2022/11/28 03:27:22;;;;;;;3.80;2.10;;;3.20;97.30;;;;;;5039309;28;20971;-82
2022/11/28 03:29:54;;;;;;;2.40;2.20;;;3.20;97.30;;;;;;5062328;28;20413;-81
2022/11/28 03:32:26;;;;;;;5.23;3.27;;;3.20;97.30;;;;;;5061832;28;20469;-82
2022/11/28 03:35:00;;;;;;;1.60;1.50;;;3.30;97.30;;;;;;5062427;28;20452;-81
2022/11/28 03:37:31;;;;;;;3.70;2.10;;;3.30;97.30;;;;;;5062343;28;20474;-82
2022/11/28 03:40:03;;;;;;;7.83;3.60;;;3.30;97.30;;;;;;5062725;28;20406;-82
2022/11/28 03:42:35;;;;;;;2.57;2.37;;;3.40;97.30;;;;;;5062285;28;20447;-81
2022/11/28 03:45:07;;;;;;;4.50;2.33;;;3.40;97.30;;;;;;5062757;28;20409;-81
2022/11/28 03:47:39;;;;;;;4.97;2.90;;;3.40;97.30;;;;;;5046161;28;20981;-81
2022/11/28 03:50:10;;;;;;;5.93;5.43;;;3.40;97.30;;;;;;5062817;28;20570;-81
2022/11/28 03:52:42;;;;;;;2.73;2.53;;;3.40;97.30;;;;;;5046347;28;20470;-81
2022/11/28 03:55:19;;;;;;;4.00;2.93;;;3.50;97.30;;;;;;5045397;28;20498;-82
2022/11/28 03:57:58;;;;;;;2.67;1.77;;;3.50;97.30;;;;;;5046206;28;20410;-82
2022/11/28 04:00:24;;;;;;;2.63;2.43;;;3.50;97.30;;;;;;5045479;28;20418;-80
2022/11/28 04:03:07;;;;;;;2.37;2.17;;;3.50;97.30;;;;;;5042005;28;20437;-80
2022/11/28 04:05:50;;;;;;;2.57;2.23;;;3.50;97.30;;;;;;5042539;28;20410;-80
2022/11/28 04:08:23;;;;;;;6.80;3.13;;;3.50;97.30;;;;;;5043258;28;20444;-80
2022/11/28 04:11:04;;;;;;;8.80;3.90;;;3.50;97.30;;;;;;5044198;28;20429;-80
2022/11/28 04:13:43;;;;;;;3.70;1.47;;;3.50;97.30;;;;;;5041875;28;20462;-81
2022/11/28 04:16:18;;;;;;;2.80;2.60;;;3.50;97.30;;;;;;5042948;28;20449;-81
2022/11/28 04:18:59;;;;;;;3.10;2.90;;;3.50;97.30;;;;;;5042619;28;20406;-81
2022/11/28 04:21:34;;;;;;;3.10;2.90;;;3.50;97.30;;;;;;5042722;28;20402;-81
2022/11/28 04:24:06;;;;;;;5.53;3.10;;;3.60;97.30;;;;;;5042642;28;20621;-80
2022/11/28 04:26:40;;;;;;;3.03;2.60;;;3.60;97.30;;;;;;5043962;28;20446;-81
2022/11/28 04:29:09;;;;;;;1.83;1.73;;;3.50;97.30;;;;;;5044122;28;20402;-80
2022/11/28 04:31:38;;;;;;;8.30;3.10;;;3.50;97.30;;;;;;5061696;28;20395;-80
2022/11/28 04:34:07;;;;;;;3.13;2.93;;;3.50;97.30;;;;;;5043348;28;20434;-80
2022/11/28 04:36:37;;;;;;;2.70;1.70;;;3.50;97.30;;;;;;5060877;28;20807;-80
2022/11/28 04:39:07;;;;;;;2.80;2.27;;;3.50;97.30;;;;;;5042622;28;20413;-81
2022/11/28 04:41:42;;;;;;;7.33;3.43;;;3.50;97.30;;;;;;5043582;28;20480;-81
2022/11/28 04:44:19;;;;;;;2.90;2.30;;;3.60;97.30;;;;;;5043257;28;20437;-81
2022/11/28 04:46:53;;;;;;;3.63;3.00;;;3.60;97.30;;;;;;5042638;28;20487;-80
2022/11/28 04:49:18;;;;;;;3.23;3.03;;;3.60;97.30;;;;;;5059950;28;20527;-80
2022/11/28 04:52:06;;;;;;;2.83;1.97;;;3.70;97.30;;;;;;5042365;28;20430;-81
2022/11/28 04:55:05;;;;;;;1.90;1.60;;;3.70;97.30;;;;;;5059297;28;20222;-81
2022/11/28 04:57:48;;;;;;;4.63;2.83;;;3.70;97.30;;;;;;5078486;28;20988;-80
2022/11/28 05:00:17;;;;;;;1.50;1.40;;;3.60;97.30;;;;;;5079020;28;20868;-80
2022/11/28 05:02:44;;;;;;;1.80;1.70;;;3.60;97.30;;;;;;5072082;28;20460;-80
2022/11/28 05:05:18;;;;;;;2.27;2.07;;;3.70;97.30;;;;;;5056298;28;20426;-80
2022/11/28 05:07:44;;;;;;;1.93;1.73;;;3.60;97.30;;;;;;5059841;28;20457;-81
2022/11/28 05:10:11;;;;;;;2.70;2.50;;;3.60;97.30;;;;;;5060403;28;20478;-80
2022/11/28 05:12:37;;;;;;;1.73;1.63;;;3.60;97.30;;;;;;5067717;28;20568;-80
2022/11/28 05:15:04;;;;;;;4.93;4.13;;;3.60;97.30;;;;;;5059629;28;20454;-80
2022/11/28 05:17:29;;;;;;;3.77;2.90;;;3.60;97.30;;;;;;5060402;28;20437;-80
2022/11/28 05:19:55;;;;;;;4.37;1.87;;;3.60;97.30;;;;;;5059874;28;20417;-80
2022/11/28 05:22:21;;;;;;;4.53;3.03;;;3.60;97.30;;;;;;5080808;28;20199;-80
2022/11/28 05:24:46;;;;;;;5.30;2.40;;;3.60;97.30;;;;;;5060809;28;20190;-80
2022/11/28 05:27:12;;;;;;;4.37;3.57;;;3.60;97.30;;;;;;5061616;28;20199;-80
2022/11/28 05:29:42;;;;;;;3.40;3.20;;;3.50;97.30;;;;;;5055576;28;20795;-80
2022/11/28 05:32:12;;;;;;;1.33;1.23;;;3.50;97.30;;;;;;5058243;28;20201;-80
2022/11/28 05:34:37;;;;;;;11.23;2.87;;;3.50;97.30;;;;;;5060936;28;20418;-78
2022/11/28 05:37:04;;;;;;;5.47;1.80;;;3.60;97.30;;;;;;5055286;28;20424;-79
2022/11/28 05:39:30;;;;;;;3.00;2.80;;;3.60;97.30;;;;;;5062232;28;20175;-80
2022/11/28 05:41:57;;;;;;;3.70;2.17;;;3.60;97.30;;;;;;5055775;28;20417;-81
2022/11/28 05:44:23;;;;;;;7.00;4.33;;;3.60;97.30;;;;;;5057016;28;20438;-80
2022/11/28 05:46:49;;;;;;;2.57;2.37;;;3.60;97.30;;;;;;5055890;28;20851;-80
2022/11/28 05:49:15;;;;;;;6.73;2.37;;;3.60;97.30;;;;;;5060944;28;20464;-80
2022/11/28 05:51:40;;;;;;;12.60;2.00;;;3.60;97.30;;;;;;5040007;28;20650;-80
2022/11/28 05:54:06;;;;;;;1.40;1.30;;;3.60;97.30;;;;;;5077535;28;20692;-80
2022/11/28 05:56:32;;;;;;;3.33;2.50;;;3.60;97.30;;;;;;5064520;28;20187;-77
2022/11/28 05:58:57;;;;;;;4.27;3.30;;;3.70;97.30;;;;;;5065073;28;20188;-79
2022/11/28 06:01:26;;;;;;;5.00;3.67;;;3.70;97.30;;;;;;5061340;28;20850;-80
2022/11/28 06:03:57;;;;;;;1.97;1.87;;;3.70;97.30;;;;;;5059596;28;20521;-79
2022/11/28 06:06:23;;;;;;;1.90;1.80;;;3.80;97.30;;;;;;5055176;28;20529;-79
2022/11/28 06:08:53;;;;;;;6.97;4.67;;;3.80;97.30;;;;;;5052219;28;20410;-79
2022/11/28 06:11:20;;;;;;;2.07;1.67;;;3.80;97.30;;;;;;5054127;28;20418;-79
2022/11/28 06:13:47;;;;;;;2.03;1.90;;;3.80;97.30;;;;;;5052393;28;20437;-79
2022/11/28 06:16:16;;;;;;;4.87;3.43;;;3.80;97.30;;;;;;5068203;28;20435;-79
2022/11/28 06:18:42;;;;;;;2.97;2.70;;;3.80;97.30;;;;;;5060872;28;20424;-80
2022/11/28 06:21:09;;;;;;;2.37;2.17;;;3.80;97.30;;;;;;5061801;28;21083;-79
2022/11/28 06:23:35;;;;;;;7.40;3.77;;;3.80;97.30;;;;;;5048370;28;20452;-80
2022/11/28 06:26:10;;;;;;;2.80;2.60;;;3.80;97.30;;;;;;5059305;28;20417;-80
2022/11/28 06:28:36;;;;;;;5.97;4.77;;;3.80;97.30;;;;;;5061616;28;20471;-79
2022/11/28 06:31:02;;;;;;;5.27;3.73;;;3.80;97.30;;;;;;5050582;28;20405;-80
2022/11/28 06:33:28;;;;;;;4.07;3.87;;;3.70;97.30;;;;;;5060051;28;20195;-80
2022/11/28 06:36:03;;;;;;;2.03;1.90;;;3.70;97.30;;;;;;5056172;28;20485;-81
2022/11/28 06:38:29;;;;;;;4.90;3.33;;;3.70;97.30;;;;;;5052829;28;20417;-80
2022/11/28 06:40:57;;;;;;;5.40;2.63;;;3.70;97.30;;;;;;5045944;28;20418;-80
2022/11/28 06:43:23;;;;;;;2.90;2.17;;;3.70;97.30;;;;;;5067000;28;21006;-79
2022/11/28 06:45:48;;;;;;;2.93;1.93;;;3.70;97.30;;;;;;5058790;28;20481;-80
2022/11/28 06:48:14;;;;;;;5.03;4.13;;;3.70;97.30;;;;;;5058892;28;20266;-80
2022/11/28 06:50:40;;;;;;;3.83;2.40;;;3.70;97.30;;;;;;5055167;28;20205;-80
2022/11/28 06:53:05;;;;;;;2.40;2.10;;;3.70;97.30;;;;;;5074991;28;20500;-80
2022/11/28 06:55:31;;;;;;;3.40;2.03;;;3.70;97.30;;;;;;5048175;28;20189;-80
2022/11/28 06:57:56;;;;;;;2.50;2.30;;;3.80;97.30;;;;;;5058745;28;20640;-80
2022/11/28 07:00:22;;;;;;;4.00;2.27;;;3.80;97.30;;;;;;5075975;28;20189;-80
2022/11/28 07:02:48;;;;;;;4.13;3.47;;;3.80;97.30;;;;;;5058264;28;20207;-80
2022/11/28 07:05:15;;;;;;;1.30;1.20;;;3.80;97.30;;;;;;5054884;28;20202;-80
2022/11/28 07:07:44;;;;;;;1.77;1.67;;;3.80;97.30;;;;;;5053850;28;20203;-78
2022/11/28 07:10:10;;;;;;;4.20;2.20;;;3.80;97.30;;;;;;5047061;28;20410;-80
2022/11/28 07:12:36;;;;;;;6.20;1.80;;;3.90;97.30;;;;;;5076775;28;20425;-80
2022/11/28 07:15:02;;;;;;;3.43;3.23;;;3.90;97.30;;;;;;5069741;28;20422;-79
2022/11/28 07:17:28;;;;;;;3.00;2.80;;;3.90;97.30;;;;;;5068004;28;20232;-80
2022/11/28 07:19:54;;;;;;;2.50;2.33;;;3.90;97.30;;;;;;5044813;28;20418;-80
2022/11/28 07:22:19;;;;;;;3.43;2.90;;;3.90;97.30;;;;;;5058109;28;20211;-80
2022/11/28 07:24:47;;;;;;;4.03;3.87;;;3.90;97.30;;;;;;5067434;28;20175;-80
2022/11/28 07:27:12;;;;;;;1.93;1.83;;;4.00;97.30;;;;;;5057165;28;20232;-79
2022/11/28 07:29:38;;;;;;;2.70;2.50;;;4.00;97.30;;;;;;5057225;28;20441;-80
2022/11/28 07:32:05;;;;;;;4.30;3.33;;;4.00;97.30;;;;;;5058391;28;20168;-79
2022/11/28 07:34:31;;;;;;;2.63;2.43;;;4.00;97.30;;;;;;5058235;28;20262;-80
2022/11/28 07:36:57;;;;;;;3.80;1.90;;;4.10;97.30;;;;;;5068667;28;20432;-80
2022/11/28 07:39:22;;;;;;;6.23;4.03;;;4.10;97.30;;;;;;5057532;28;20444;-80
2022/11/28 07:41:48;;;;;;;6.03;2.50;;;4.10;97.30;;;;;;5076090;28;20188;-80
2022/11/28 07:44:16;;;;;;;1.60;1.50;;;4.10;97.30;;;;;;5060631;28;20220;-80
2022/11/28 07:46:43;;;;;;;2.80;2.60;;;4.10;97.30;;;;;;5078205;28;20467;-79
2022/11/28 07:49:08;;;;;;;9.30;4.00;;;4.10;97.30;;;;;;5063601;28;20460;-80
2022/11/28 07:51:34;;;;;;;4.50;4.20;;;4.10;97.30;;;;;;5067923;28;20826;-79
2022/11/28 07:54:01;;;;;;;2.13;1.97;;;4.10;97.30;;;;;;5064343;28;20191;-80
2022/11/28 07:56:30;;;;;;;6.77;2.87;;;4.10;97.30;;;;;;5060675;28;20183;-80
2022/11/28 07:58:56;;;;;;;1.90;1.80;;;4.10;97.30;;;;;;5077398;28;20432;-80
2022/11/28 08:01:27;;;;;;;4.93;2.50;;;4.10;97.30;;;;;;5080585;28;20915;-79
2022/11/28 08:03:53;;;;;;;2.37;2.17;;;4.10;97.30;;;;;;5057349;28;20208;-79
2022/11/28 08:06:22;;;;;;;4.27;4.00;;;4.10;97.30;;;;;;5053751;28;20761;-80
2022/11/28 08:08:48;;;;;;;6.13;3.70;;;4.10;97.30;;;;;;5061170;28;20421;-80
2022/11/28 08:11:16;;;;;;;4.20;2.33;;;4.10;97.30;;;;;;5051393;28;20567;-80
2022/11/28 08:13:42;;;;;;;6.20;2.97;;;4.10;97.30;;;;;;5061752;28;20461;-80
2022/11/28 08:16:20;;;;;;;9.60;3.47;;;4.10;97.30;;;;;;5061427;28;20461;-80
2022/11/28 08:18:47;;;;;;;17.60;4.80;;;4.10;97.30;;;;;;5055283;28;20416;-80
2022/11/28 08:21:18;;;;;;;6.83;3.87;;;4.00;97.30;;;;;;5067608;28;20796;-80
2022/11/28 08:23:46;;;;;;;4.70;2.63;;;4.10;97.30;;;;;;5061268;28;20814;-80
2022/11/28 08:26:15;;;;;;;7.73;3.27;;;4.00;97.30;;;;;;5061346;28;20961;-79
2022/11/28 08:28:41;;;;;;;3.87;3.27;;;4.10;97.30;;;;;;5061232;28;20421;-80
2022/11/28 08:31:12;;;;;;;5.50;4.67;;;4.10;97.30;;;;;;5059613;28;20413;-80
2022/11/28 08:33:38;;;;;;;8.50;4.60;;;4.10;97.30;;;;;;5057309;28;20791;-81
2022/11/28 08:36:06;;;;;;;2.37;1.97;;;4.10;97.30;;;;;;5064250;28;20413;-80
2022/11/28 08:38:31;;;;;;;3.43;2.60;;;4.10;97.30;;;;;;5071847;28;20915;-80
2022/11/28 08:41:02;;;;;;;4.07;3.83;;;4.10;97.30;;;;;;5078682;28;20455;-80
2022/11/28 08:43:27;;;;;;;2.33;2.13;;;4.10;97.30;;;;;;5060728;28;20203;-80
2022/11/28 08:45:53;;;;;;;10.17;5.00;;;4.20;97.30;;;;;;5060225;28;20463;-80
2022/11/28 08:48:19;;;;;;;6.60;3.70;;;4.20;97.30;;;;;;5061270;28;21068;-80
2022/11/28 08:50:48;;;;;;;2.77;2.60;;;4.30;97.30;;;;;;5047404;28;20210;-80
2022/11/28 08:53:14;;;;;;;11.80;2.63;;;4.30;97.30;;;;;;5060720;28;20230;-80
2022/11/28 08:55:43;;;;;;;8.00;4.23;;;4.30;97.30;;;;;;5060334;28;20790;-80
2022/11/28 08:58:10;;;;;;;3.13;2.70;;;4.40;97.30;;;;;;5061209;28;20191;-79
2022/11/28 09:00:35;;;;;;;5.70;4.03;;;4.40;97.30;;;;;;5060102;28;20425;-80
2022/11/28 09:03:01;;;;;;;4.67;2.50;;;4.40;97.30;;;;;;5060844;28;20445;-80
2022/11/28 09:05:28;;;;;;;2.43;2.23;;;4.50;97.30;;;;;;5078601;28;20633;-79
2022/11/28 09:07:54;;;;;;;7.47;4.23;;;4.50;97.30;;;;;;5049863;28;20215;-80
2022/11/28 09:10:20;;;;;;;2.63;2.43;;;4.50;97.30;;;;;;5045907;28;20957;-80
2022/11/28 09:12:46;;;;;;;2.30;2.10;;;4.60;97.30;;;;;;5060829;28;20442;-80
2022/11/28 09:15:12;;;;;;;8.80;3.60;;;4.60;97.30;;;;;;5060144;28;20448;-80
2022/11/28 09:17:39;;;;;;;5.30;3.00;;;4.60;97.30;;;;;;5049657;28;20649;-81
2022/11/28 09:20:05;;;;;;;18.20;5.70;;;4.70;97.30;;;;;;5071259;28;20183;-80
2022/11/28 09:22:31;;;;;;;3.57;2.50;;;4.70;97.30;;;;;;5060382;28;20495;-80
2022/11/28 09:24:57;;;;;;;7.90;5.07;;;4.70;97.30;;;;;;5060733;28;20414;-80
2022/11/28 09:27:22;;;;;;;6.50;2.73;;;4.70;97.30;;;;;;5060271;28;20202;-79
2022/11/28 09:29:48;;;;;;;15.63;3.20;;;4.80;97.30;;;;;;5064044;28;20624;-80
2022/11/28 09:32:14;;;;;;;8.37;3.07;;;4.80;97.30;;;;;;5060608;28;20175;-80
2022/11/28 09:34:40;;;;;;;3.03;2.80;;;4.90;97.30;;;;;;5060481;28;20596;-81
2022/11/28 09:37:06;;;;;;;3.37;3.17;;;4.90;97.30;;;;;;5066662;28;20194;-80
2022/11/28 09:39:31;;;;;;;2.20;2.03;;;4.90;97.30;;;;;;5051122;28;20175;-80
2022/11/28 09:42:20;;;;;;;2.40;2.20;;;5.00;97.30;;;;;;5060184;28;20653;-79
2022/11/28 09:45:06;;;;;;;3.20;2.97;;;5.00;97.30;;;;;;5052250;28;20184;-80
2022/11/28 09:47:35;;;;;;;2.50;2.30;;;5.10;97.30;;;;;;5059183;28;21012;-80
2022/11/28 09:50:14;;;;;;;8.70;4.30;;;5.20;97.30;;;;;;5059679;28;20829;-80
2022/11/28 09:53:01;;;;;;;5.77;3.73;;;5.20;97.30;;;;;;5059115;28;20441;-80
2022/11/28 09:55:48;;;;;;;3.70;2.80;;;5.20;97.30;;;;;;5077070;28;20500;-80
2022/11/28 09:58:35;;;;;;;3.90;2.97;;;5.30;97.30;;;;;;5047061;28;20421;-80
2022/11/28 10:01:14;;;;;;;4.93;3.07;;;5.30;97.30;;;;;;5063192;28;20421;-80
2022/11/28 10:03:59;;;;;;;2.33;1.73;;;5.30;97.30;;;;;;5067468;28;20433;-80
2022/11/28 10:06:43;;;;;;;14.13;3.53;;;5.40;97.30;;;;;;5056073;28;20458;-80
2022/11/28 10:09:42;;;;;;;2.50;2.17;;;5.40;97.30;;;;;;5070153;28;20449;-80
2022/11/28 10:12:48;;;;;;;7.73;3.93;;;5.40;97.30;;;;;;5077136;28;20420;-80
2022/11/28 10:15:31;;;;;;;3.27;3.07;;;5.40;97.30;;;;;;5059676;28;20409;-80
2022/11/28 10:18:22;;;;;;;3.60;3.20;;;5.40;97.30;;;;;;5059394;28;20516;-80
2022/11/28 10:20:53;;;;;;;1.30;1.27;;;5.40;97.30;;;;;;5056330;28;20422;-79
2022/11/28 10:23:25;;;;;;;3.30;2.77;;;5.40;97.30;;;;;;5061649;28;20440;-80
2022/11/28 10:26:04;;;;;;;2.20;2.10;;;5.50;97.30;;;;;;5085114;28;20512;-80
2022/11/28 10:28:41;;;;;;;3.77;3.37;;;5.50;97.30;;;;;;5046298;28;20506;-80
2022/11/28 10:31:40;;;;;;;6.80;5.60;;;5.60;97.30;;;;;;5072248;28;20764;-80
2022/11/28 10:34:18;;;;;;;5.83;3.27;;;5.60;97.30;;;;;;5050776;28;20437;-80
2022/11/28 10:36:43;;;;;;;4.27;2.37;;;5.60;97.30;;;;;;5057078;28;20426;-79
2022/11/28 10:39:11;;;;;;;2.93;2.73;;;5.70;97.30;;;;;;5057778;28;20512;-80
2022/11/28 10:41:43;;;;;;;6.70;4.47;;;5.80;97.30;;;;;;5066501;28;20171;-80
2022/11/28 10:44:17;;;;;;;4.07;3.83;;;5.80;97.30;;;;;;5076720;28;20429;-81
2022/11/28 10:46:59;;;;;;;1.83;1.73;;;5.90;97.30;;;;;;5059989;28;20499;-81
2022/11/28 10:49:57;;;;;;;4.80;4.17;;;5.90;97.30;;;;;;5068782;28;21002;-80
2022/11/28 10:52:25;;;;;;;10.07;3.53;;;6.00;97.30;;;;;;5056666;28;20441;-80
2022/11/28 10:55:23;;;;;;;2.80;2.43;;;6.00;97.30;;;;;;5059050;28;20953;-80
2022/11/28 10:57:48;;;;;;;11.00;5.10;;;6.00;97.30;;;;;;5071588;28;20448;-80
2022/11/28 11:00:17;;;;;;;3.17;2.90;;;6.00;97.30;;;;;;5050284;28;20422;-80
2022/11/28 11:02:47;;;;;;;8.70;4.03;;;6.10;97.30;;;;;;5070176;28;20199;-80
2022/11/28 11:05:17;;;;;;;9.20;3.97;;;6.00;97.30;;;;;;5052644;28;20425;-79
2022/11/28 11:08:05;;;;;;;6.83;3.77;;;6.00;97.30;;;;;;5063327;28;20455;-80
2022/11/28 11:10:42;;;;;;;4.37;1.47;;;6.10;97.30;;;;;;5011833;28;20469;-80
2022/11/28 11:13:21;;;;;;;10.23;5.30;;;6.10;97.30;;;;;;5046431;28;20855;-81
2022/11/28 11:15:54;;;;;;;2.77;2.57;;;6.10;97.30;;;;;;5056389;28;20440;-80
2022/11/28 11:18:37;;;;;;;5.80;3.30;;;6.10;97.30;;;;;;5056899;28;20894;-80
2022/11/28 11:21:25;;;;;;;1.30;1.20;;;6.20;97.30;;;;;;5070175;28;20436;-80
2022/11/28 11:24:17;;;;;;;3.23;2.60;;;6.20;97.30;;;;;;5060606;28;20440;-80
2022/11/28 11:26:45;;;;;;;18.10;3.60;;;6.30;97.30;;;;;;5061270;28;20471;-80
2022/11/28 11:29:36;;;;;;;2.77;2.30;;;6.40;97.30;;;;;;5060722;28;20420;-80
2022/11/28 11:32:05;;;;;;;3.10;2.90;;;6.30;97.30;;;;;;5060462;28;20719;-80
2022/11/28 11:34:43;;;;;;;4.83;3.70;;;6.40;97.30;;;;;;5070113;28;20417;-80
2022/11/28 11:37:34;;;;;;;4.00;2.80;;;6.40;97.30;;;;;;5061565;28;20964;-80
2022/11/28 11:40:01;;;;;;;7.37;4.27;;;6.40;97.30;;;;;;5079298;28;20425;-80
2022/11/28 11:42:31;;;;;;;9.20;1.97;;;6.40;97.30;;;;;;5061944;28;20444;-80
2022/11/28 11:45:26;;;;;;;5.03;4.73;;;6.40;97.30;;;;;;5061277;28;20457;-80
2022/11/28 11:47:52;;;;;;;1.37;1.27;;;6.40;97.30;;;;;;5070097;28;20464;-80
2022/11/28 11:50:21;;;;;;;5.00;2.77;;;6.40;97.30;;;;;;5062517;28;20476;-80
2022/11/28 11:53:09;;;;;;;4.60;4.30;;;6.40;97.30;;;;;;5078908;28;20195;-81
2022/11/28 11:55:51;;;;;;;5.17;2.77;;;6.40;97.30;;;;;;5078139;28;20423;-80
2022/11/28 11:58:31;;;;;;;8.10;3.03;;;6.40;97.30;;;;;;5046267;28;20514;-81
2022/11/28 12:00:58;;;;;;;6.00;3.90;;;6.40;97.30;;;;;;5047427;28;20426;-80
2022/11/28 12:03:31;;;;;;;6.13;5.20;;;6.40;97.30;;;;;;5064564;28;21321;-80
2022/11/28 12:06:03;;;;;;;8.83;4.17;;;6.40;97.30;;;;;;5064788;28;20992;-81
2022/11/28 12:08:43;;;;;;;7.57;4.73;;;6.40;97.30;;;;;;5060728;28;20436;-81
2022/11/28 12:11:09;;;;;;;21.43;3.37;;;6.40;97.30;;;;;;5060794;28;20448;-80
2022/11/28 12:13:35;;;;;;;4.83;3.73;;;6.40;97.30;;;;;;5059793;28;20441;-79
2022/11/28 12:17:01;;;;;;;2.77;2.57;;;6.40;97.30;;;;;;5059834;28;20210;-80
2022/11/28 12:19:48;;;;;;;7.43;5.07;;;6.40;97.30;;;;;;4976727;28;20187;-80
2022/11/28 12:22:30;;;;;;;4.40;4.10;;;6.40;97.30;;;;;;4971399;28;20421;-80
2022/11/28 12:24:59;;;;;;;4.80;3.17;;;6.50;97.30;;;;;;5031313;28;20943;-80
2022/11/28 12:27:44;;;;;;;9.63;2.30;;;6.50;97.30;;;;;;5078043;28;20593;-80
2022/11/28 12:30:28;;;;;;;6.30;4.50;;;6.50;97.30;;;;;;5047151;28;20512;-81
2022/11/28 12:33:00;;;;;;;12.07;3.30;;;6.50;97.30;;;;;;5060435;28;20457;-81
2022/11/28 12:35:48;;;;;;;3.63;3.30;;;6.50;97.30;;;;;;5060067;28;20461;-80
2022/11/28 12:38:54;;;;;;;7.40;3.17;;;6.50;97.30;;;;;;5051426;28;20422;-81
2022/11/28 12:41:34;;;;;;;4.03;3.60;;;6.50;97.30;;;;;;5078139;28;20417;-80
2022/11/28 12:44:18;;;;;;;15.10;4.57;;;6.50;97.30;;;;;;5060083;28;20606;-80
2022/11/28 12:47:13;;;;;;;2.50;2.10;;;6.50;97.30;;;;;;5059737;28;20480;-81
2022/11/28 12:49:56;;;;;;;2.50;2.30;;;6.50;97.30;;;;;;4967331;28;20474;-80
2022/11/28 12:52:55;;;;;;;2.83;2.23;;;6.50;97.30;;;;;;5054398;28;20426;-80
2022/11/28 12:55:24;;;;;;;3.73;3.07;;;6.50;97.30;;;;;;5021208;28;20419;-81
2022/11/28 12:57:54;;;;;;;10.13;5.10;;;6.50;97.30;;;;;;5049948;28;20502;-81
2022/11/28 13:00:23;;;;;;;7.20;3.30;;;6.50;97.30;;;;;;5053578;28;20415;-80
2022/11/28 13:03:26;;;;;;;9.73;4.53;;;6.50;97.30;;;;;;5040451;28;20442;-81
2022/11/28 13:06:04;;;;;;;5.10;2.70;;;6.50;97.30;;;;;;5039752;28;20438;-80
2022/11/28 13:08:56;;;;;;;3.40;2.20;;;6.50;97.30;;;;;;5039972;28;20458;-80
2022/11/28 13:11:33;;;;;;;2.43;2.23;;;6.40;97.30;;;;;;5052702;28;20931;-80
2022/11/28 13:14:25;;;;;;;4.30;2.63;;;6.40;97.30;;;;;;5040337;28;20479;-80
2022/11/28 13:16:53;;;;;;;3.40;2.43;;;6.40;97.30;;;;;;5039631;28;20422;-80
2022/11/28 13:19:28;;;;;;;5.80;2.03;;;6.40;97.30;;;;;;5039585;28;20418;-80
2022/11/28 13:22:13;;;;;;;4.70;3.10;;;6.50;97.30;;;;;;5046101;28;20416;-80
2022/11/28 13:25:06;;;;;;;2.93;2.63;;;6.50;97.30;;;;;;5062003;28;20406;-80